Airport View

Enter AWOS ICAO identifier for current METAR.

ex. KFNL

KEUL 251256Z AUTO 00000KT 10SM OVC075 09/07 A2999 RMK AO2 SLP149 T00890067

25 Sep 2020 13:47

Frequency: 135.075

Phone: 208-454-3953

Other Area AWOS: KMAN - KBOI - KONO - KMUO

TAF KEUL 251120Z 2512/2612 14005KT P6SM SKC FM252000 32012G20KT P6SM BKN080 FM260200 34010KT P6SM VCSH BKN060 FM260500 30010KT P6SM -SHRA OVC050